createdAt,value
2023-02-12T00:02:11.048Z,11.83
2023-02-12T00:07:12.917Z,12.77
2023-02-12T00:12:14.692Z,14.27
2023-02-12T00:17:16.464Z,14.97
2023-02-12T00:22:18.511Z,15.27
2023-02-12T00:27:20.315Z,14.50
2023-02-12T00:32:22.285Z,15.83
2023-02-12T00:37:24.234Z,16.17
2023-02-12T00:42:28.749Z,15.43
2023-02-12T00:47:31.087Z,16.23
2023-02-12T00:52:33.079Z,15.93
2023-02-12T00:57:34.871Z,15.87
2023-02-12T01:02:36.816Z,16.80
2023-02-12T01:07:40.796Z,17.70
2023-02-12T01:12:42.990Z,19.03
2023-02-12T01:17:45.092Z,18.40
2023-02-12T01:22:47.245Z,17.30
2023-02-12T01:27:49.284Z,20.50
2023-02-12T01:32:51.447Z,19.77
2023-02-12T01:37:53.595Z,17.37
2023-02-12T01:42:55.405Z,19.33
2023-02-12T01:48:00.623Z,17.63
2023-02-12T01:53:03.137Z,19.33
2023-02-12T01:58:06.069Z,19.20
2023-02-12T02:03:08.816Z,18.90
2023-02-12T02:08:12.506Z,19.80
2023-02-12T02:13:33.290Z,18.90
2023-02-12T02:18:53.264Z,18.97
2023-02-12T02:24:23.728Z,20.87
2023-02-12T02:29:46.778Z,17.83
2023-02-12T02:34:57.928Z,19.07
2023-02-12T02:40:02.866Z,19.17
2023-02-12T02:45:24.461Z,19.17
2023-02-12T02:50:29.466Z,19.67
2023-02-12T02:55:38.867Z,18.10
2023-02-12T03:00:48.877Z,19.70
2023-02-12T03:05:54.697Z,20.07
2023-02-12T03:11:03.783Z,18.80
2023-02-12T03:16:18.986Z,18.97
2023-02-12T03:21:29.293Z,18.00
2023-02-12T03:26:51.168Z,17.33
2023-02-12T03:32:06.382Z,17.73
2023-02-12T03:37:25.407Z,17.85
2023-02-12T03:42:52.191Z,18.53
2023-02-12T03:48:23.359Z,17.43
2023-02-12T03:53:27.339Z,15.10
2023-02-12T03:58:30.486Z,15.23
2023-02-12T04:03:33.014Z,14.27
2023-02-12T04:08:34.786Z,15.10
2023-02-12T04:14:03.158Z,15.97
2023-02-12T04:19:05.103Z,14.70
2023-02-12T04:24:22.950Z,14.83
2023-02-12T04:30:01.974Z,13.00
2023-02-12T04:35:33.991Z,12.73
2023-02-12T04:40:38.450Z,12.03
2023-02-12T04:45:41.078Z,14.60
2023-02-12T04:50:45.124Z,13.07
2023-02-12T04:55:47.679Z,13.73
2023-02-12T05:00:49.665Z,14.40
2023-02-12T05:05:51.675Z,13.03
2023-02-12T05:10:53.611Z,12.90
2023-02-12T05:15:55.964Z,12.10
2023-02-12T05:21:00.093Z,12.90
2023-02-12T05:26:04.024Z,13.67
2023-02-12T05:31:08.542Z,12.53
2023-02-12T05:36:19.339Z,12.73
2023-02-12T05:41:23.993Z,12.87
2023-02-12T05:46:25.892Z,12.37
2023-02-12T05:51:28.323Z,14.13
2023-02-12T05:56:35.945Z,12.57
2023-02-12T06:01:40.604Z,12.37
2023-02-12T06:06:42.986Z,12.60
2023-02-12T06:11:44.877Z,13.87
2023-02-12T06:16:49.021Z,12.60
2023-02-12T06:21:50.948Z,13.33
2023-02-12T06:26:53.065Z,12.83
2023-02-12T06:31:54.923Z,12.10
2023-02-12T06:36:57.086Z,12.43
2023-02-12T06:41:59.797Z,11.53
2023-02-12T06:47:01.710Z,12.43
2023-02-12T06:52:03.757Z,12.97
2023-02-12T06:57:05.947Z,12.63
2023-02-12T07:02:10.448Z,13.00
2023-02-12T07:07:13.483Z,11.70
2023-02-12T07:12:15.284Z,12.00
2023-02-12T07:17:17.282Z,12.33
2023-02-12T07:22:19.273Z,12.47
2023-02-12T07:27:21.053Z,13.13
2023-02-12T07:32:23.138Z,12.13
2023-02-12T07:37:25.247Z,13.90
2023-02-12T07:42:27.077Z,13.37
2023-02-12T07:47:28.836Z,12.83
2023-02-12T07:52:30.653Z,13.73
2023-02-12T07:57:32.418Z,12.80
2023-02-12T08:02:34.283Z,14.03
2023-02-12T08:07:36.365Z,14.97
2023-02-12T08:12:38.410Z,14.83
2023-02-12T08:17:42.327Z,14.37
2023-02-12T08:22:44.078Z,13.93
2023-02-12T08:27:46.129Z,14.43
2023-02-12T08:32:49.759Z,15.10
2023-02-12T08:37:52.547Z,14.60
2023-02-12T08:42:54.374Z,15.33
2023-02-12T08:47:56.301Z,14.83
2023-02-12T08:52:58.198Z,14.70
2023-02-12T08:58:00.876Z,14.47
2023-02-12T09:03:02.691Z,14.60
2023-02-12T09:08:04.776Z,15.23
2023-02-12T09:13:07.589Z,15.87
2023-02-12T09:18:10.775Z,16.23
2023-02-12T09:23:14.179Z,16.37
2023-02-12T09:28:16.061Z,15.90
2023-02-12T09:33:18.388Z,15.40
2023-02-12T09:38:20.422Z,14.57
2023-02-12T09:43:44.319Z,12.93
2023-02-12T09:49:09.018Z,15.33
2023-02-12T09:54:17.286Z,15.10
2023-02-12T09:59:32.402Z,16.17
2023-02-12T10:04:34.329Z,16.80
2023-02-12T10:10:08.171Z,18.07
2023-02-12T10:15:29.125Z,17.13
2023-02-12T10:20:38.475Z,18.03
2023-02-12T10:25:53.016Z,18.03
2023-02-12T10:31:05.782Z,17.00
2023-02-12T10:36:23.160Z,17.67
2023-02-12T10:41:28.328Z,15.87
2023-02-12T10:46:32.121Z,14.97
2023-02-12T10:51:36.886Z,15.13
2023-02-12T10:56:38.966Z,15.30
2023-02-12T11:01:47.163Z,15.07
2023-02-12T11:07:04.211Z,15.43
2023-02-12T11:12:20.249Z,11.93
2023-02-12T11:17:30.795Z,12.00
2023-02-12T11:22:32.667Z,14.07
2023-02-12T11:27:34.582Z,12.10
2023-02-12T11:32:37.286Z,13.17
2023-02-12T11:37:43.840Z,12.20
2023-02-12T11:42:52.343Z,12.43
2023-02-12T11:47:54.381Z,11.77
2023-02-12T11:53:00.856Z,12.23
2023-02-12T11:58:16.180Z,13.63
2023-02-12T12:03:38.930Z,13.70
2023-02-12T12:08:53.730Z,12.60
2023-02-12T12:14:05.158Z,13.13
2023-02-12T12:19:34.656Z,13.33
2023-02-12T12:25:24.861Z,12.43
2023-02-12T12:30:50.668Z,12.03
2023-02-12T12:36:13.867Z,13.43
2023-02-12T12:41:39.950Z,14.07
2023-02-12T12:47:08.793Z,14.70
2023-02-12T12:52:31.375Z,14.87
2023-02-12T12:57:42.426Z,15.07
2023-02-12T13:03:02.358Z,14.73
2023-02-12T13:08:58.721Z,14.30
2023-02-12T13:14:28.297Z,14.70
2023-02-12T13:19:42.440Z,14.13
2023-02-12T13:24:57.968Z,13.37
2023-02-12T13:30:17.334Z,13.93
2023-02-12T13:35:22.969Z,13.70
2023-02-12T13:40:27.598Z,13.60
2023-02-12T13:46:02.226Z,14.30
2023-02-12T13:51:28.646Z,13.83
2023-02-12T13:56:49.891Z,13.13
2023-02-12T14:01:52.987Z,13.50
2023-02-12T14:07:01.010Z,12.47
2023-02-12T14:12:06.705Z,13.67
2023-02-12T14:17:30.903Z,14.43
2023-02-12T14:22:32.705Z,13.83
2023-02-12T14:27:46.707Z,14.13
2023-02-12T14:32:58.100Z,14.50
2023-02-12T14:38:07.023Z,14.80
2023-02-12T14:44:02.589Z,15.10
2023-02-12T14:49:06.031Z,14.37
2023-02-12T14:54:17.879Z,15.43
2023-02-12T14:59:23.426Z,15.63
2023-02-12T15:04:33.182Z,15.73
2023-02-12T15:09:46.525Z,16.47
2023-02-12T15:14:56.798Z,16.47
2023-02-12T15:20:22.319Z,15.80
2023-02-12T15:25:29.374Z,16.00
2023-02-12T15:30:36.788Z,16.23
2023-02-12T15:35:43.928Z,15.97
2023-02-12T15:40:59.279Z,15.30
2023-02-12T15:46:03.901Z,16.17
2023-02-12T15:51:18.263Z,18.23
2023-02-12T15:56:23.050Z,17.57
2023-02-12T16:01:28.750Z,17.03
2023-02-12T16:06:36.850Z,17.50
2023-02-12T16:11:40.018Z,17.13
2023-02-12T16:16:50.365Z,17.67
2023-02-12T16:22:06.053Z,17.63
2023-02-12T16:27:18.687Z,18.53
2023-02-12T16:32:29.619Z,19.23
2023-02-12T16:37:37.451Z,19.13
2023-02-12T16:42:48.688Z,18.53
2023-02-12T16:47:51.362Z,20.17
2023-02-12T16:53:00.989Z,17.97
2023-02-12T16:58:02.862Z,18.97
2023-02-12T17:03:04.987Z,18.37
2023-02-12T17:08:13.316Z,19.70
2023-02-12T17:13:16.298Z,18.57
2023-02-12T17:18:19.173Z,21.10
2023-02-12T17:23:21.548Z,19.67
2023-02-12T17:28:25.017Z,18.87
2023-02-12T17:33:27.667Z,21.10
2023-02-12T17:38:29.610Z,21.67
2023-02-12T17:43:31.388Z,20.43
2023-02-12T17:48:33.199Z,21.47
2023-02-12T17:53:35.266Z,21.73
2023-02-12T17:58:38.808Z,24.37
2023-02-12T18:03:41.045Z,25.00
2023-02-12T18:08:43.197Z,24.90
2023-02-12T18:13:45.245Z,24.03
2023-02-12T18:18:48.141Z,26.97
2023-02-12T18:23:50.197Z,26.57
2023-02-12T18:28:53.802Z,26.17
2023-02-12T18:33:55.724Z,25.20
2023-02-12T18:39:00.865Z,25.10
2023-02-12T18:44:02.877Z,26.43
2023-02-12T18:49:05.023Z,25.23
2023-02-12T18:54:11.067Z,25.33
2023-02-12T18:59:15.553Z,24.90
2023-02-12T19:04:20.184Z,25.00
2023-02-12T19:09:31.600Z,26.43
2023-02-12T19:14:34.517Z,25.70
2023-02-12T19:19:36.722Z,27.13
2023-02-12T19:24:46.662Z,23.57
2023-02-12T19:29:49.080Z,24.57
2023-02-12T19:34:50.963Z,24.13
2023-02-12T19:39:52.965Z,23.57
2023-02-12T19:44:54.797Z,25.70
2023-02-12T19:49:56.803Z,24.30
2023-02-12T19:54:58.847Z,23.87
2023-02-12T20:00:00.801Z,24.23
2023-02-12T20:05:02.794Z,22.67
2023-02-12T20:10:05.020Z,26.20
2023-02-12T20:15:07.377Z,25.73
2023-02-12T20:20:10.234Z,26.90
2023-02-12T20:25:12.183Z,26.80
2023-02-12T20:30:14.514Z,28.57
2023-02-12T20:35:16.703Z,26.80
2023-02-12T20:40:18.803Z,28.40
2023-02-12T20:45:20.952Z,27.97
2023-02-12T20:50:22.919Z,27.23
2023-02-12T20:55:25.056Z,28.20
2023-02-12T21:00:26.820Z,26.43
2023-02-12T21:05:28.912Z,24.83
2023-02-12T21:10:32.596Z,24.70
2023-02-12T21:15:34.415Z,25.60
2023-02-12T21:20:36.318Z,24.97
2023-02-12T21:25:38.341Z,27.13
2023-02-12T21:30:40.311Z,25.47
2023-02-12T21:35:42.107Z,24.27
2023-02-12T21:40:43.991Z,24.33
2023-02-12T21:45:50.551Z,24.63
2023-02-12T21:50:52.578Z,24.93
2023-02-12T21:55:55.253Z,24.47
2023-02-12T22:00:57.655Z,24.93
2023-02-12T22:06:01.331Z,25.93
2023-02-12T22:11:05.044Z,23.93
2023-02-12T22:16:09.093Z,23.83
2023-02-12T22:21:13.830Z,23.90
2023-02-12T22:26:24.271Z,23.50
2023-02-12T22:31:29.419Z,23.43
2023-02-12T22:36:34.045Z,22.83
2023-02-12T22:41:35.913Z,22.73
2023-02-12T22:46:37.985Z,22.00
2023-02-12T22:51:40.258Z,24.63
2023-02-12T22:56:42.860Z,23.43
2023-02-12T23:01:44.811Z,23.97
2023-02-12T23:06:47.241Z,23.30
2023-02-12T23:11:49.300Z,23.33
2023-02-12T23:16:51.414Z,23.73
2023-02-12T23:21:53.433Z,23.87
2023-02-12T23:26:55.278Z,25.13
2023-02-12T23:31:57.057Z,20.90
2023-02-12T23:36:59.052Z,20.33
2023-02-12T23:42:02.785Z,20.00
2023-02-12T23:47:05.595Z,18.20
2023-02-12T23:52:07.610Z,19.93
2023-02-12T23:57:09.768Z,18.77
